createdAt,value
2024-04-21T00:01:36.419Z,4.30
2024-04-21T00:04:03.153Z,4.03
2024-04-21T00:06:29.798Z,3.92
2024-04-21T00:08:56.378Z,4.30
2024-04-21T00:11:24.097Z,4.20
2024-04-21T00:13:50.651Z,4.20
2024-04-21T00:16:17.305Z,4.18
2024-04-21T00:18:43.910Z,4.20
2024-04-21T00:21:12.742Z,3.90
2024-04-21T00:23:41.300Z,3.70
2024-04-21T00:26:07.904Z,3.42
2024-04-21T00:28:36.475Z,3.20
2024-04-21T00:31:03.155Z,3.10
2024-04-21T00:33:29.837Z,3.60
2024-04-21T00:35:56.434Z,3.15
2024-04-21T00:38:23.080Z,3.55
2024-04-21T00:40:49.647Z,3.70
2024-04-21T00:43:16.417Z,3.42
2024-04-21T00:45:46.819Z,3.58
2024-04-21T00:48:15.002Z,3.40
2024-04-21T00:50:50.509Z,3.95
2024-04-21T00:53:19.046Z,3.53
2024-04-21T00:55:46.101Z,4.00
2024-04-21T00:58:15.425Z,3.88
2024-04-21T01:00:42.814Z,3.17
2024-04-21T01:03:17.605Z,3.17
2024-04-21T01:05:44.179Z,3.72
2024-04-21T01:08:10.854Z,4.13
2024-04-21T01:10:37.464Z,4.25
2024-04-21T01:13:13.610Z,3.83
2024-04-21T01:15:40.632Z,3.65
2024-04-21T01:18:08.543Z,3.47
2024-04-21T01:20:37.955Z,4.10
2024-04-21T01:23:04.986Z,3.50
2024-04-21T01:25:31.632Z,3.67
2024-04-21T01:28:16.871Z,3.47
2024-04-21T01:30:43.480Z,3.92
2024-04-21T01:33:10.086Z,4.00
2024-04-21T01:35:36.830Z,4.35
2024-04-21T01:38:03.495Z,4.07
2024-04-21T01:40:30.202Z,3.92
2024-04-21T01:43:08.223Z,4.28
2024-04-21T01:45:34.826Z,3.92
2024-04-21T01:48:01.466Z,4.15
2024-04-21T01:50:28.090Z,3.75
2024-04-21T01:52:54.649Z,3.75
2024-04-21T01:55:23.333Z,3.97
2024-04-21T01:57:49.944Z,3.72
2024-04-21T02:00:16.739Z,3.70
2024-04-21T02:02:43.439Z,4.13
2024-04-21T02:05:10.039Z,3.75
2024-04-21T02:07:38.070Z,3.75
2024-04-21T02:10:04.928Z,3.78
2024-04-21T02:12:31.543Z,4.15
2024-04-21T02:14:59.201Z,3.83
2024-04-21T02:17:25.946Z,3.67
2024-04-21T02:19:52.568Z,3.90
2024-04-21T02:22:19.214Z,3.45
2024-04-21T02:24:45.792Z,3.40
2024-04-21T02:27:12.361Z,3.63
2024-04-21T02:29:38.912Z,3.67
2024-04-21T02:32:08.572Z,5.00
2024-04-21T02:34:35.155Z,4.70
2024-04-21T02:37:01.804Z,5.20
2024-04-21T02:39:28.686Z,5.25
2024-04-21T02:41:55.330Z,5.63
2024-04-21T02:44:21.925Z,4.47
2024-04-21T02:46:49.289Z,4.50
2024-04-21T02:49:15.999Z,4.22
2024-04-21T02:51:42.613Z,5.55
2024-04-21T02:54:09.198Z,5.80
2024-04-21T02:56:36.811Z,4.93
2024-04-21T02:59:03.677Z,4.80
2024-04-21T03:01:30.392Z,4.97
2024-04-21T03:03:57.197Z,4.25
2024-04-21T03:06:23.810Z,4.22
2024-04-21T03:08:52.365Z,4.22
2024-04-21T03:11:19.017Z,4.05
2024-04-21T03:13:47.345Z,3.63
2024-04-21T03:16:14.003Z,3.90
2024-04-21T03:18:40.589Z,3.30
2024-04-21T03:21:07.157Z,3.67
2024-04-21T03:23:34.765Z,4.10
2024-04-21T03:26:01.334Z,3.78
2024-04-21T03:28:27.932Z,3.58
2024-04-21T03:30:58.545Z,3.40
2024-04-21T03:33:25.439Z,2.75
2024-04-21T03:36:09.460Z,3.30
2024-04-21T03:38:37.236Z,3.05
2024-04-21T03:41:04.421Z,3.03
2024-04-21T03:43:31.228Z,3.28
2024-04-21T03:46:02.015Z,3.08
2024-04-21T03:48:28.676Z,3.17
2024-04-21T03:50:55.221Z,3.22
2024-04-21T03:53:26.830Z,3.20
2024-04-21T03:55:53.443Z,3.13
2024-04-21T03:58:20.487Z,3.10
2024-04-21T04:00:50.077Z,3.15
2024-04-21T04:03:17.713Z,3.30
2024-04-21T04:05:45.514Z,2.92
2024-04-21T04:08:12.903Z,3.20
2024-04-21T04:10:44.599Z,2.88
2024-04-21T04:13:11.801Z,2.72
2024-04-21T04:15:38.707Z,2.97
2024-04-21T04:18:05.514Z,2.80
2024-04-21T04:20:35.151Z,3.13
2024-04-21T04:23:03.049Z,3.28
2024-04-21T04:25:29.612Z,2.67
2024-04-21T04:27:56.382Z,3.30
2024-04-21T04:30:23.366Z,3.50
2024-04-21T04:32:50.012Z,3.25
2024-04-21T04:35:17.601Z,3.10
2024-04-21T04:37:44.280Z,3.40
2024-04-21T04:40:12.402Z,3.45
2024-04-21T04:42:39.074Z,2.80
2024-04-21T04:45:05.900Z,2.75
2024-04-21T04:47:32.550Z,3.17
2024-04-21T04:49:59.145Z,2.75
2024-04-21T04:52:25.718Z,3.17
2024-04-21T04:54:52.298Z,2.65
2024-04-21T04:57:18.869Z,3.22
2024-04-21T04:59:45.422Z,2.83
2024-04-21T05:02:11.989Z,2.38
2024-04-21T05:04:38.704Z,2.70
2024-04-21T05:07:05.512Z,2.75
2024-04-21T05:09:32.104Z,2.40
2024-04-21T05:11:59.789Z,2.35
2024-04-21T05:14:28.525Z,2.60
2024-04-21T05:16:55.134Z,2.40
2024-04-21T05:19:21.970Z,2.25
2024-04-21T05:21:48.651Z,2.35
2024-04-21T05:24:30.574Z,2.60
2024-04-21T05:26:57.177Z,2.72
2024-04-21T05:29:23.744Z,2.65
2024-04-21T05:31:50.371Z,2.80
2024-04-21T05:34:25.999Z,6.30
2024-04-21T05:36:52.656Z,4.20
2024-04-21T05:39:20.499Z,5.15
2024-04-21T05:41:47.142Z,18.48
2024-04-21T05:44:13.668Z,12.20
2024-04-21T05:46:40.208Z,6.00
2024-04-21T05:49:06.863Z,9.68
2024-04-21T05:51:33.460Z,10.43
2024-04-21T05:54:02.028Z,18.50
2024-04-21T05:56:29.485Z,8.07
2024-04-21T05:58:56.036Z,5.40
2024-04-21T06:01:22.850Z,4.38
2024-04-21T06:03:49.571Z,4.15
2024-04-21T06:06:22.573Z,3.53
2024-04-21T06:08:50.117Z,3.80
2024-04-21T06:11:16.944Z,3.88
2024-04-21T06:13:45.818Z,3.88
2024-04-21T06:16:12.688Z,4.32
2024-04-21T06:18:39.801Z,3.40
2024-04-21T06:21:07.088Z,4.40
2024-04-21T06:23:33.786Z,4.97
2024-04-21T06:26:00.364Z,3.97
2024-04-21T06:28:26.979Z,3.08
2024-04-21T06:30:53.582Z,3.42
2024-04-21T06:33:20.267Z,3.40
2024-04-21T06:35:47.046Z,3.67
2024-04-21T06:38:13.694Z,4.00
2024-04-21T06:40:41.256Z,5.47
2024-04-21T06:43:07.814Z,4.38
2024-04-21T06:45:34.381Z,3.85
2024-04-21T06:48:01.042Z,2.70
2024-04-21T06:50:28.432Z,2.88
2024-04-21T06:52:55.131Z,2.90
2024-04-21T06:55:22.003Z,2.92
2024-04-21T06:57:48.915Z,2.80
2024-04-21T07:00:15.705Z,3.28
2024-04-21T07:02:42.257Z,2.47
2024-04-21T07:05:08.788Z,2.45
2024-04-21T07:07:36.640Z,2.75
2024-04-21T07:10:03.385Z,2.92
2024-04-21T07:12:30.101Z,2.50
2024-04-21T07:14:57.710Z,1.70
2024-04-21T07:17:24.718Z,1.70
2024-04-21T07:19:52.350Z,1.40
2024-04-21T07:22:18.935Z,2.45
2024-04-21T07:24:46.665Z,2.38
2024-04-21T07:27:13.228Z,2.60
2024-04-21T07:29:42.026Z,2.72
2024-04-21T07:32:08.900Z,2.72
2024-04-21T07:34:35.465Z,3.00
2024-04-21T07:37:03.837Z,2.97
2024-04-21T07:39:30.694Z,4.32
2024-04-21T07:41:59.295Z,5.78
2024-04-21T07:44:25.830Z,2.30
2024-04-21T07:46:52.410Z,2.08
2024-04-21T07:49:18.997Z,2.13
2024-04-21T07:51:45.545Z,2.40
2024-04-21T07:54:12.146Z,2.20
2024-04-21T07:56:38.694Z,1.90
2024-04-21T07:59:05.284Z,1.88
2024-04-21T08:01:31.922Z,1.90
2024-04-21T08:03:59.718Z,1.98
2024-04-21T08:06:26.281Z,1.90
2024-04-21T08:08:58.259Z,2.03
2024-04-21T08:11:31.661Z,2.13
2024-04-21T08:13:58.564Z,3.20
2024-04-21T08:16:25.255Z,2.97
2024-04-21T08:18:52.022Z,2.40
2024-04-21T08:21:19.689Z,1.98
2024-04-21T08:23:46.244Z,1.90
2024-04-21T08:26:12.795Z,1.80
2024-04-21T08:28:39.374Z,2.00
2024-04-21T08:31:06.012Z,1.40
2024-04-21T08:33:32.660Z,1.70
2024-04-21T08:36:00.296Z,1.52
2024-04-21T08:38:28.848Z,1.30
2024-04-21T08:40:55.548Z,1.42
2024-04-21T08:43:27.112Z,0.90
2024-04-21T08:45:56.603Z,1.10
2024-04-21T08:48:24.286Z,1.08
2024-04-21T08:50:51.331Z,1.30
2024-04-21T08:53:19.444Z,1.25
2024-04-21T08:55:50.483Z,3.17
2024-04-21T08:58:20.318Z,3.75
2024-04-21T09:00:47.401Z,3.47
2024-04-21T09:03:17.453Z,2.97
2024-04-21T09:05:44.554Z,1.63
2024-04-21T09:08:11.147Z,1.40
2024-04-21T09:10:37.796Z,1.40
2024-04-21T09:13:05.220Z,1.20
2024-04-21T09:15:38.913Z,1.10
2024-04-21T09:18:06.285Z,1.10
2024-04-21T09:20:32.929Z,1.10
2024-04-21T09:23:03.796Z,1.10
2024-04-21T09:25:30.435Z,1.23
2024-04-21T09:27:57.023Z,1.00
2024-04-21T09:30:23.613Z,1.00
2024-04-21T09:32:50.343Z,0.80
2024-04-21T09:35:18.639Z,1.40
2024-04-21T09:37:46.933Z,1.10
2024-04-21T09:40:16.397Z,1.42
2024-04-21T09:42:45.403Z,1.40
2024-04-21T09:45:14.462Z,4.72
2024-04-21T09:47:45.315Z,2.58
2024-04-21T09:50:13.751Z,1.17
2024-04-21T09:52:40.366Z,0.98
2024-04-21T09:55:08.850Z,0.77
2024-04-21T09:57:38.712Z,0.52
2024-04-21T10:00:09.334Z,0.45
2024-04-21T10:02:46.699Z,0.40
2024-04-21T10:05:19.619Z,0.47
2024-04-21T10:07:51.290Z,0.40
2024-04-21T10:10:21.781Z,0.25
2024-04-21T10:12:49.188Z,0.40
2024-04-21T10:15:22.086Z,0.50
2024-04-21T10:18:00.020Z,0.52
2024-04-21T10:20:33.764Z,0.45
2024-04-21T10:23:07.491Z,0.50
2024-04-21T10:25:38.678Z,0.57
2024-04-21T10:28:09.937Z,0.52
2024-04-21T10:30:38.523Z,0.60
2024-04-21T10:33:11.286Z,0.40
2024-04-21T10:35:39.771Z,0.50
2024-04-21T10:38:08.496Z,0.45
2024-04-21T10:40:39.897Z,1.25
2024-04-21T10:43:06.875Z,0.90
2024-04-21T10:45:33.912Z,1.10
2024-04-21T10:48:00.771Z,0.82
2024-04-21T10:50:27.635Z,1.13
2024-04-21T10:52:55.186Z,0.73
2024-04-21T10:55:22.228Z,0.70
2024-04-21T10:57:48.948Z,0.75
2024-04-21T11:00:16.337Z,0.68
2024-04-21T11:02:42.977Z,1.02
2024-04-21T11:05:11.002Z,0.90
2024-04-21T11:07:38.684Z,0.85
2024-04-21T11:10:05.589Z,2.90
2024-04-21T11:12:33.643Z,4.25
2024-04-21T11:15:02.248Z,8.75
2024-04-21T11:17:29.120Z,4.95
2024-04-21T11:19:55.741Z,2.58
2024-04-21T11:22:22.934Z,3.13
2024-04-21T11:24:50.058Z,1.48
2024-04-21T11:27:18.060Z,4.20
2024-04-21T11:29:47.817Z,4.85
2024-04-21T11:32:16.647Z,2.40
2024-04-21T11:34:45.195Z,1.00
2024-04-21T11:37:21.433Z,1.75
2024-04-21T11:42:14.697Z,0.93
2024-04-21T11:44:42.807Z,0.60
2024-04-21T11:47:09.356Z,1.05
2024-04-21T11:49:36.058Z,1.10
2024-04-21T11:52:03.104Z,0.80
2024-04-21T11:54:29.761Z,2.60
2024-04-21T11:56:56.388Z,1.10
2024-04-21T11:59:23.660Z,1.80
2024-04-21T12:01:51.026Z,4.43
2024-04-21T12:04:18.150Z,1.58
2024-04-21T12:06:44.763Z,2.00
2024-04-21T12:09:11.342Z,1.08
2024-04-21T12:11:38.116Z,1.00
2024-04-21T12:14:25.900Z,2.33
2024-04-21T12:16:53.391Z,0.80
2024-04-21T12:19:20.149Z,3.28
2024-04-21T12:21:46.741Z,1.40
2024-04-21T12:24:13.311Z,0.60
2024-04-21T12:26:39.875Z,0.80
2024-04-21T12:29:06.395Z,0.90
2024-04-21T12:31:33.035Z,0.80
2024-04-21T12:33:59.707Z,0.70
2024-04-21T12:36:35.817Z,1.00
2024-04-21T12:39:14.185Z,1.15
2024-04-21T12:41:41.729Z,0.98
2024-04-21T12:44:08.250Z,0.88
2024-04-21T12:46:34.849Z,0.68
2024-04-21T12:49:03.089Z,0.60
2024-04-21T12:51:29.791Z,0.68
2024-04-21T12:54:05.615Z,0.80
2024-04-21T12:56:32.579Z,0.50
2024-04-21T12:59:02.855Z,0.75
2024-04-21T13:01:29.661Z,0.75
2024-04-21T13:03:56.250Z,0.90
2024-04-21T13:06:22.921Z,0.80
2024-04-21T13:08:52.551Z,1.10
2024-04-21T13:11:19.299Z,1.17
2024-04-21T13:13:45.995Z,1.30
2024-04-21T13:16:14.568Z,1.58
2024-04-21T13:18:41.119Z,1.42
2024-04-21T13:21:07.684Z,1.20
2024-04-21T13:23:36.823Z,1.30
2024-04-21T13:26:06.207Z,1.60
2024-04-21T13:28:34.070Z,1.63
2024-04-21T13:31:00.930Z,1.98
2024-04-21T13:33:27.647Z,1.70
2024-04-21T13:35:54.405Z,1.90
2024-04-21T13:38:22.071Z,1.83
2024-04-21T13:40:48.723Z,2.50
2024-04-21T13:43:16.273Z,2.80
2024-04-21T13:45:42.864Z,2.50
2024-04-21T13:48:14.423Z,2.90
2024-04-21T13:50:45.251Z,3.25
2024-04-21T13:53:12.947Z,3.50
2024-04-21T13:55:41.361Z,3.40
2024-04-21T13:58:07.980Z,3.50
2024-04-21T14:00:37.053Z,3.85
2024-04-21T14:03:05.009Z,3.88
2024-04-21T14:05:33.625Z,3.90
2024-04-21T14:08:03.635Z,3.63
2024-04-21T14:10:36.341Z,4.13
2024-04-21T14:13:13.182Z,3.38
2024-04-21T14:15:46.951Z,3.60
2024-04-21T14:18:21.525Z,3.67
2024-04-21T14:20:50.921Z,3.85
2024-04-21T14:23:22.459Z,2.90
2024-04-21T14:25:52.116Z,3.00
2024-04-21T14:28:18.856Z,3.20
2024-04-21T14:30:46.599Z,2.90
2024-04-21T14:33:16.370Z,3.38
2024-04-21T14:35:44.201Z,3.10
2024-04-21T14:38:10.905Z,2.63
2024-04-21T14:40:45.422Z,3.08
2024-04-21T14:43:12.357Z,3.45
2024-04-21T14:45:44.050Z,2.80
2024-04-21T14:48:10.696Z,2.83
2024-04-21T14:50:41.442Z,2.90
2024-04-21T14:53:08.587Z,3.05
2024-04-21T14:55:40.834Z,2.53
2024-04-21T14:58:09.440Z,2.03
2024-04-21T15:00:43.416Z,2.25
2024-04-21T15:03:17.320Z,2.10
2024-04-21T15:05:51.041Z,2.60
2024-04-21T15:08:18.487Z,1.80
2024-04-21T15:10:46.104Z,2.00
2024-04-21T15:13:13.793Z,1.80
2024-04-21T15:15:42.487Z,1.75
2024-04-21T15:18:10.155Z,2.05
2024-04-21T15:20:47.657Z,1.60
2024-04-21T15:23:14.848Z,1.77
2024-04-21T15:25:41.459Z,1.67
2024-04-21T15:28:09.176Z,2.20
2024-04-21T15:30:38.100Z,2.03
2024-04-21T15:33:06.984Z,1.75
2024-04-21T15:35:33.701Z,7.32
2024-04-21T15:38:01.458Z,2.00
2024-04-21T15:40:31.445Z,1.65
2024-04-21T15:42:58.351Z,1.80
2024-04-21T15:45:25.007Z,1.80
2024-04-21T15:47:58.172Z,2.20
2024-04-21T15:50:26.794Z,2.83
2024-04-21T15:52:53.765Z,2.05
2024-04-21T15:55:21.460Z,2.22
2024-04-21T15:57:48.356Z,2.35
2024-04-21T16:00:15.074Z,3.05
2024-04-21T16:02:41.692Z,4.00
2024-04-21T16:05:10.450Z,2.55
2024-04-21T16:07:37.363Z,2.60
2024-04-21T16:10:04.558Z,2.83
2024-04-21T16:12:32.334Z,2.40
2024-04-21T16:15:00.034Z,3.10
2024-04-21T16:17:26.807Z,2.17
2024-04-21T16:19:54.710Z,2.65
2024-04-21T16:22:21.562Z,2.72
2024-04-21T16:24:48.435Z,2.10
2024-04-21T16:27:16.463Z,2.25
2024-04-21T16:29:43.851Z,2.88
2024-04-21T16:32:11.616Z,2.92
2024-04-21T16:34:40.041Z,3.40
2024-04-21T16:37:09.565Z,2.58
2024-04-21T16:39:37.470Z,2.75
2024-04-21T16:42:05.604Z,2.75
2024-04-21T16:44:32.462Z,2.47
2024-04-21T16:47:02.659Z,2.30
2024-04-21T16:49:29.691Z,2.10
2024-04-21T16:52:01.671Z,2.33
2024-04-21T16:54:32.231Z,2.20
2024-04-21T16:57:18.535Z,2.20
2024-04-21T16:59:49.966Z,2.90
2024-04-21T17:02:18.763Z,2.95
2024-04-21T17:04:46.030Z,2.60
2024-04-21T17:07:18.170Z,2.10
2024-04-21T17:09:49.148Z,2.70
2024-04-21T17:12:24.207Z,2.65
2024-04-21T17:14:51.320Z,3.00
2024-04-21T17:17:20.277Z,3.22
2024-04-21T17:19:47.972Z,2.40
2024-04-21T17:22:14.996Z,2.85
2024-04-21T17:24:41.969Z,3.13
2024-04-21T17:27:10.351Z,4.10
2024-04-21T17:29:38.038Z,3.42
2024-04-21T17:32:05.080Z,3.70
2024-04-21T17:34:32.734Z,3.22
2024-04-21T17:36:59.603Z,3.80
2024-04-21T17:39:27.284Z,3.40
2024-04-21T17:41:54.002Z,4.03
2024-04-21T17:44:20.540Z,6.43
2024-04-21T17:46:51.941Z,3.85
2024-04-21T17:49:18.788Z,3.05
2024-04-21T17:51:46.545Z,6.30
2024-04-21T17:54:16.419Z,3.92
2024-04-21T17:56:43.738Z,2.97
2024-04-21T17:59:10.539Z,3.63
2024-04-21T18:01:39.883Z,2.83
2024-04-21T18:04:09.174Z,3.47
2024-04-21T18:06:35.985Z,3.45
2024-04-21T18:09:04.639Z,3.50
2024-04-21T18:11:34.268Z,3.50
2024-04-21T18:14:01.279Z,3.80
2024-04-21T18:16:28.128Z,4.43
2024-04-21T18:18:55.963Z,3.70
2024-04-21T18:21:23.567Z,3.58
2024-04-21T18:23:50.228Z,3.92
2024-04-21T18:26:16.911Z,5.07
2024-04-21T18:28:45.739Z,4.80
2024-04-21T18:31:12.522Z,4.70
2024-04-21T18:33:40.400Z,5.07
2024-04-21T18:36:07.520Z,5.60
2024-04-21T18:38:34.290Z,5.38
2024-04-21T18:41:00.881Z,5.80
2024-04-21T18:43:30.409Z,5.05
2024-04-21T18:45:57.306Z,5.40
2024-04-21T18:48:23.896Z,5.00
2024-04-21T18:50:50.556Z,5.60
2024-04-21T18:53:20.810Z,4.90
2024-04-21T18:55:47.947Z,5.38
2024-04-21T18:58:15.738Z,5.03
2024-04-21T19:00:42.956Z,4.93
2024-04-21T19:03:09.716Z,4.75
2024-04-21T19:05:40.213Z,4.47
2024-04-21T19:08:08.101Z,4.53
2024-04-21T19:10:36.056Z,4.35
2024-04-21T19:13:05.591Z,4.13
2024-04-21T19:15:32.810Z,4.03
2024-04-21T19:18:04.387Z,4.60
2024-04-21T19:20:31.694Z,3.90
2024-04-21T19:22:58.773Z,4.18
2024-04-21T19:25:27.087Z,3.65
2024-04-21T19:27:53.843Z,3.80
2024-04-21T19:30:20.526Z,4.20
2024-04-21T19:32:47.471Z,4.32
2024-04-21T19:35:15.415Z,4.80
2024-04-21T19:37:43.267Z,4.40
2024-04-21T19:40:10.367Z,4.13
2024-04-21T19:42:38.031Z,4.05
2024-04-21T19:45:05.203Z,4.32
2024-04-21T19:47:33.159Z,4.07
2024-04-21T19:49:59.847Z,5.20
2024-04-21T19:52:26.664Z,4.70
2024-04-21T19:54:54.294Z,5.47
2024-04-21T19:57:22.445Z,5.80
2024-04-21T19:59:51.348Z,4.97
2024-04-21T20:02:19.092Z,5.75
2024-04-21T20:04:46.916Z,5.93
2024-04-21T20:07:13.650Z,6.30
2024-04-21T20:09:40.205Z,6.30
2024-04-21T20:12:07.267Z,6.65
2024-04-21T20:14:53.200Z,6.97
2024-04-21T20:17:38.474Z,6.72
2024-04-21T20:20:06.538Z,6.35
2024-04-21T20:22:33.192Z,7.30
2024-04-21T20:25:00.012Z,6.80
2024-04-21T20:27:26.574Z,6.45
2024-04-21T20:29:54.708Z,6.53
2024-04-21T20:32:21.926Z,6.53
2024-04-21T20:34:48.538Z,6.30
2024-04-21T20:37:18.254Z,6.05
2024-04-21T20:39:45.300Z,5.90
2024-04-21T20:42:11.858Z,5.65
2024-04-21T20:44:38.596Z,5.82
2024-04-21T20:47:05.275Z,5.20
2024-04-21T20:49:31.887Z,4.55
2024-04-21T20:51:59.650Z,4.90
2024-04-21T20:54:26.198Z,5.57
2024-04-21T20:56:52.986Z,5.97
2024-04-21T20:59:19.673Z,6.25
2024-04-21T21:01:46.422Z,5.40
2024-04-21T21:04:14.009Z,5.30
2024-04-21T21:06:40.672Z,5.38
2024-04-21T21:09:07.293Z,5.68
2024-04-21T21:11:33.950Z,4.90
2024-04-21T21:14:00.616Z,4.85
2024-04-21T21:16:28.561Z,4.95
2024-04-21T21:18:55.196Z,5.32
2024-04-21T21:21:21.933Z,5.30
2024-04-21T21:23:48.613Z,6.03
2024-04-21T21:26:18.452Z,5.80
2024-04-21T21:28:47.709Z,6.57
2024-04-21T21:31:14.549Z,6.68
2024-04-21T21:33:41.264Z,14.73
2024-04-21T21:36:08.181Z,9.57
2024-04-21T21:38:37.859Z,8.13
2024-04-21T21:41:04.666Z,7.20
2024-04-21T21:43:31.353Z,7.45
2024-04-21T21:45:57.907Z,7.85
2024-04-21T21:48:24.690Z,8.02
2024-04-21T21:50:51.316Z,7.25
2024-04-21T21:53:17.903Z,6.75
2024-04-21T21:55:44.584Z,6.72
2024-04-21T21:58:12.416Z,7.85
2024-04-21T22:00:39.069Z,9.13
2024-04-21T22:03:07.238Z,9.05
2024-04-21T22:05:34.421Z,8.05
2024-04-21T22:08:01.216Z,6.63
2024-04-21T22:10:28.550Z,7.35
2024-04-21T22:12:56.472Z,6.60
2024-04-21T22:15:23.198Z,6.55
2024-04-21T22:17:49.858Z,6.75
2024-04-21T22:20:16.537Z,6.15
2024-04-21T22:22:43.184Z,6.32
2024-04-21T22:25:09.769Z,6.05
2024-04-21T22:27:36.426Z,6.43
2024-04-21T22:30:03.204Z,7.78
2024-04-21T22:32:29.948Z,8.80
2024-04-21T22:34:56.548Z,8.23
2024-04-21T22:37:23.149Z,6.55
2024-04-21T22:39:50.214Z,4.68
2024-04-21T22:42:16.772Z,4.22
2024-04-21T22:44:43.314Z,4.72
2024-04-21T22:47:09.869Z,4.80
2024-04-21T22:49:36.525Z,3.88
2024-04-21T22:52:03.350Z,3.55
2024-04-21T22:54:29.970Z,3.67
2024-04-21T22:56:56.521Z,3.85
2024-04-21T22:59:23.319Z,3.40
2024-04-21T23:01:50.376Z,3.40
2024-04-21T23:04:16.989Z,3.75
2024-04-21T23:06:43.599Z,4.07
2024-04-21T23:09:10.117Z,4.00
2024-04-21T23:11:36.671Z,4.18
2024-04-21T23:14:03.244Z,4.38
2024-04-21T23:16:29.849Z,4.68
2024-04-21T23:18:56.399Z,4.78
2024-04-21T23:21:23.103Z,4.53
2024-04-21T23:23:49.689Z,4.30
2024-04-21T23:26:16.267Z,4.10
2024-04-21T23:28:42.877Z,5.03
2024-04-21T23:31:11.642Z,5.47
2024-04-21T23:33:38.311Z,4.22
2024-04-21T23:36:05.285Z,4.88
2024-04-21T23:38:31.896Z,4.88
2024-04-21T23:40:58.515Z,4.65
2024-04-21T23:43:25.157Z,4.45
2024-04-21T23:45:52.098Z,4.25
2024-04-21T23:48:18.815Z,4.20
2024-04-21T23:50:45.467Z,4.32
2024-04-21T23:53:12.077Z,4.63
2024-04-21T23:55:40.583Z,4.10
2024-04-21T23:58:07.562Z,3.90
